Time;durP1;ratioP1;P1;durP2;ratioP2;P2;SDS_P1;SDS_P2;PMS_P1;PMS_P2;Temp;Humidity;BMP_temperature;BMP_pressure;BME280_temperature;BME280_humidity;BME280_pressure;Samples;Min_cycle;Max_cycle;Signal;HPM_P1;HPM_P2
2023/09/28 00:01:55;;;;;;;6.43;5.87;;;19.40;99.90;;;;;;5021734;28;20222;-78
2023/09/28 00:04:21;;;;;;;7.73;5.87;;;19.40;99.90;;;;;;5017142;28;20525;-80
2023/09/28 00:06:47;;;;;;;7.13;6.40;;;19.40;99.90;;;;;;5018888;28;20192;-81
2023/09/28 00:09:12;;;;;;;6.67;5.80;;;19.30;99.90;;;;;;5023028;28;20414;-77
2023/09/28 00:11:38;;;;;;;6.90;5.63;;;19.30;99.90;;;;;;5024601;28;20183;-77
2023/09/28 00:14:04;;;;;;;6.20;5.60;;;19.30;99.90;;;;;;5021907;28;20203;-78
2023/09/28 00:16:29;;;;;;;7.67;5.90;;;19.40;99.90;;;;;;5024075;28;20193;-79
2023/09/28 00:18:55;;;;;;;6.47;5.87;;;19.30;99.90;;;;;;5000793;28;20588;-77
2023/09/28 00:21:21;;;;;;;6.40;5.80;;;19.30;99.90;;;;;;5021123;28;20185;-78
2023/09/28 00:23:49;;;;;;;5.83;5.23;;;19.20;99.90;;;;;;5025976;28;20635;-78
2023/09/28 00:26:16;;;;;;;8.13;5.90;;;19.10;99.90;;;;;;5022427;28;20204;-78
2023/09/28 00:28:42;;;;;;;6.50;5.83;;;19.20;99.90;;;;;;5018953;28;20804;-79
2023/09/28 00:31:09;;;;;;;6.60;5.90;;;19.10;99.90;;;;;;5018699;28;20429;-80
2023/09/28 00:33:34;;;;;;;8.07;6.67;;;19.10;99.90;;;;;;5020603;28;20237;-79
2023/09/28 00:36:00;;;;;;;6.00;5.40;;;19.10;99.90;;;;;;5014915;28;20478;-82
2023/09/28 00:38:25;;;;;;;7.50;5.00;;;19.10;99.90;;;;;;5004143;28;20219;-79
2023/09/28 00:40:51;;;;;;;7.00;6.20;;;19.20;99.90;;;;;;5015702;28;20180;-78
2023/09/28 00:43:25;;;;;;;6.00;5.40;;;19.20;99.90;;;;;;5017516;28;20211;-80
2023/09/28 00:45:51;;;;;;;10.27;6.10;;;19.10;99.90;;;;;;5018340;28;20230;-80
2023/09/28 00:48:17;;;;;;;6.30;5.70;;;19.20;99.90;;;;;;5024445;28;20486;-83
2023/09/28 00:50:42;;;;;;;9.50;6.07;;;19.00;99.90;;;;;;5012348;28;20193;-82
2023/09/28 00:53:08;;;;;;;6.83;6.13;;;19.00;99.90;;;;;;5018083;28;20184;-81
2023/09/28 00:55:36;;;;;;;10.57;5.60;;;19.00;99.90;;;;;;5021618;28;20544;-78
2023/09/28 00:58:04;;;;;;;6.90;5.60;;;19.00;99.90;;;;;;5016970;28;20435;-78
2023/09/28 01:00:33;;;;;;;11.57;6.13;;;19.00;99.90;;;;;;5015627;28;20435;-79
2023/09/28 01:03:05;;;;;;;6.33;5.73;;;19.10;99.90;;;;;;4995692;28;20427;-81
2023/09/28 01:05:40;;;;;;;7.80;5.50;;;19.10;99.90;;;;;;4995511;28;20819;-80
2023/09/28 01:08:11;;;;;;;6.57;5.93;;;19.10;99.90;;;;;;5014316;28;20546;-79
2023/09/28 01:10:38;;;;;;;6.83;5.90;;;19.20;99.90;;;;;;5020090;28;20995;-80
2023/09/28 01:13:20;;;;;;;6.97;6.27;;;19.10;99.90;;;;;;5004929;28;20440;-80
2023/09/28 01:15:48;;;;;;;6.20;5.60;;;19.10;99.90;;;;;;5019049;28;20505;-83
2023/09/28 01:18:15;;;;;;;6.10;5.50;;;19.20;99.90;;;;;;5022570;28;20438;-79
2023/09/28 01:20:43;;;;;;;6.67;5.97;;;19.20;99.90;;;;;;5021023;28;20412;-79
2023/09/28 01:23:09;;;;;;;7.30;6.17;;;19.20;99.90;;;;;;5022184;28;20926;-80
2023/09/28 01:25:35;;;;;;;7.73;6.20;;;19.30;99.90;;;;;;5017758;28;20422;-81
2023/09/28 01:28:02;;;;;;;6.80;6.10;;;19.30;99.90;;;;;;5020379;28;20263;-79
2023/09/28 01:30:28;;;;;;;6.90;5.93;;;19.30;99.90;;;;;;5019290;28;20926;-79
2023/09/28 01:32:53;;;;;;;7.30;5.83;;;19.30;99.90;;;;;;5004057;28;20431;-79
2023/09/28 01:35:20;;;;;;;11.77;7.13;;;19.30;99.90;;;;;;5017543;28;20236;-83
2023/09/28 01:38:10;;;;;;;8.23;6.73;;;19.40;99.90;;;;;;5021786;28;20191;-79
2023/09/28 01:40:36;;;;;;;7.53;6.90;;;19.30;99.90;;;;;;5013886;28;20427;-80
2023/09/28 01:43:01;;;;;;;7.70;6.63;;;19.30;99.90;;;;;;5018118;28;20434;-82
2023/09/28 01:45:27;;;;;;;7.63;6.93;;;19.20;99.90;;;;;;5024688;28;20423;-81
2023/09/28 01:47:53;;;;;;;8.60;6.70;;;19.20;99.90;;;;;;5018608;28;20248;-81
2023/09/28 01:50:18;;;;;;;8.03;6.87;;;19.30;99.90;;;;;;5019285;28;20766;-79
2023/09/28 01:52:44;;;;;;;7.30;6.60;;;19.30;99.90;;;;;;5013787;28;20184;-80
2023/09/28 01:55:09;;;;;;;7.20;6.50;;;19.20;99.90;;;;;;5026335;28;20232;-81
2023/09/28 01:57:35;;;;;;;9.63;7.10;;;19.20;99.90;;;;;;5017696;28;20181;-80
2023/09/28 02:00:05;;;;;;;9.03;6.60;;;19.00;99.90;;;;;;5020973;28;20233;-80
2023/09/28 02:02:36;;;;;;;8.03;7.07;;;18.90;99.90;;;;;;5021557;28;20431;-79
2023/09/28 02:05:03;;;;;;;9.50;6.93;;;18.90;99.90;;;;;;5027887;28;20435;-82
2023/09/28 02:07:28;;;;;;;7.73;6.40;;;18.90;99.90;;;;;;5029969;28;20556;-82
2023/09/28 02:09:54;;;;;;;7.17;6.37;;;18.80;99.90;;;;;;5026686;28;20932;-78
2023/09/28 02:12:19;;;;;;;7.93;7.10;;;18.70;99.90;;;;;;5017008;28;20184;-81
2023/09/28 02:14:45;;;;;;;7.03;6.33;;;18.70;99.90;;;;;;5020994;28;20277;-79
2023/09/28 02:17:11;;;;;;;6.90;5.93;;;18.60;99.90;;;;;;5019610;28;20636;-81
2023/09/28 02:19:38;;;;;;;10.67;6.43;;;18.60;99.90;;;;;;5017078;28;20185;-83
2023/09/28 02:22:05;;;;;;;7.20;6.50;;;18.70;99.90;;;;;;5020480;28;20686;-80
2023/09/28 02:24:31;;;;;;;7.93;5.83;;;18.70;99.90;;;;;;5000056;28;20548;-80
2023/09/28 02:26:57;;;;;;;8.43;6.40;;;18.70;99.90;;;;;;5022137;28;21645;-78
2023/09/28 02:29:22;;;;;;;7.07;5.60;;;18.80;99.90;;;;;;5016651;28;20235;-78
2023/09/28 02:31:48;;;;;;;8.40;6.60;;;18.70;99.90;;;;;;5013426;28;20185;-78
2023/09/28 02:34:13;;;;;;;10.00;6.70;;;18.80;99.90;;;;;;5034372;28;20694;-81
2023/09/28 02:36:40;;;;;;;8.50;6.37;;;18.70;99.90;;;;;;5018892;28;20850;-79
2023/09/28 02:39:07;;;;;;;7.43;5.57;;;18.70;99.90;;;;;;5019463;28;20264;-82
2023/09/28 02:41:33;;;;;;;5.93;5.33;;;18.70;99.90;;;;;;5029429;28;20473;-81
2023/09/28 02:43:58;;;;;;;6.23;5.63;;;18.80;99.90;;;;;;5019951;28;20953;-82
2023/09/28 02:46:26;;;;;;;6.00;5.30;;;18.80;99.90;;;;;;5020529;28;20252;-81
2023/09/28 02:48:52;;;;;;;7.40;5.40;;;18.80;99.90;;;;;;5017524;28;20446;-80
2023/09/28 02:51:18;;;;;;;9.63;6.20;;;18.80;99.90;;;;;;5018012;28;20832;-80
2023/09/28 02:53:44;;;;;;;6.47;5.87;;;18.90;99.90;;;;;;5016139;28;20210;-81
2023/09/28 02:56:09;;;;;;;8.07;5.73;;;18.90;99.90;;;;;;5019778;28;20508;-81
2023/09/28 02:58:35;;;;;;;6.40;5.80;;;18.90;99.90;;;;;;5023816;28;20914;-81
2023/09/28 03:01:01;;;;;;;6.60;5.73;;;18.90;99.90;;;;;;5017951;28;20230;-80
2023/09/28 03:03:27;;;;;;;6.47;5.80;;;18.90;99.90;;;;;;5015143;28;20212;-84
2023/09/28 03:05:56;;;;;;;6.37;5.50;;;18.90;99.90;;;;;;5017049;28;20436;-80
2023/09/28 03:08:22;;;;;;;5.93;5.43;;;19.00;99.90;;;;;;5015274;28;20247;-83
2023/09/28 03:10:48;;;;;;;7.63;5.70;;;19.00;99.90;;;;;;5018186;28;20415;-78
2023/09/28 03:13:14;;;;;;;7.10;6.40;;;18.90;99.90;;;;;;4996759;28;20447;-78
2023/09/28 03:15:44;;;;;;;6.20;5.60;;;18.90;99.90;;;;;;5020065;28;20654;-81
2023/09/28 03:18:13;;;;;;;7.33;6.13;;;18.90;99.90;;;;;;5014748;28;20764;-82
2023/09/28 03:20:43;;;;;;;6.60;5.43;;;18.90;99.90;;;;;;5019102;28;20455;-81
2023/09/28 03:23:08;;;;;;;7.00;6.27;;;18.90;99.90;;;;;;5017877;28;20427;-78
2023/09/28 03:25:34;;;;;;;6.57;5.97;;;18.90;99.90;;;;;;5002660;28;20419;-77
2023/09/28 03:28:00;;;;;;;6.40;5.73;;;19.00;99.90;;;;;;5018529;28;20217;-79
2023/09/28 03:30:26;;;;;;;7.30;6.60;;;18.90;99.90;;;;;;5020061;28;20223;-79
2023/09/28 03:32:53;;;;;;;8.33;7.03;;;18.90;99.90;;;;;;5016532;28;20206;-77
2023/09/28 03:35:19;;;;;;;7.43;6.57;;;18.90;99.90;;;;;;5019091;28;20438;-79
2023/09/28 03:37:47;;;;;;;7.40;6.70;;;18.90;99.90;;;;;;5018500;28;20423;-77
2023/09/28 03:40:13;;;;;;;12.43;6.43;;;18.90;99.90;;;;;;5004357;28;20457;-79
2023/09/28 03:42:40;;;;;;;7.37;6.67;;;18.80;99.90;;;;;;5017246;28;20466;-78
2023/09/28 03:45:11;;;;;;;7.93;7.13;;;18.80;99.90;;;;;;5031957;28;20565;-78
2023/09/28 03:47:37;;;;;;;7.50;6.40;;;18.80;99.90;;;;;;5019571;28;20505;-78
2023/09/28 03:50:05;;;;;;;8.10;7.30;;;18.80;99.90;;;;;;5019159;28;20411;-79
2023/09/28 03:52:31;;;;;;;7.13;6.27;;;18.90;99.90;;;;;;5005305;28;20415;-80
2023/09/28 03:54:57;;;;;;;7.63;6.20;;;18.90;99.90;;;;;;5016592;28;21826;-77
2023/09/28 03:57:23;;;;;;;6.90;6.03;;;18.80;99.90;;;;;;5034169;28;20276;-79
2023/09/28 03:59:49;;;;;;;6.30;5.70;;;18.80;99.90;;;;;;5019632;28;21366;-79
2023/09/28 04:02:15;;;;;;;10.37;6.80;;;18.80;99.90;;;;;;5019519;28;20211;-79
2023/09/28 04:04:40;;;;;;;8.63;7.57;;;18.80;99.90;;;;;;5017937;28;20459;-79
2023/09/28 04:07:08;;;;;;;8.10;6.60;;;18.80;99.90;;;;;;5015835;28;20597;-79
2023/09/28 04:09:33;;;;;;;6.90;5.70;;;18.80;99.90;;;;;;5019578;28;20222;-79
2023/09/28 04:12:00;;;;;;;9.77;7.17;;;18.80;99.90;;;;;;5021950;28;20459;-79
2023/09/28 04:14:25;;;;;;;7.83;7.03;;;18.70;99.90;;;;;;5018085;28;21786;-82
2023/09/28 04:16:51;;;;;;;7.90;6.20;;;18.70;99.90;;;;;;5022689;28;20438;-80
2023/09/28 04:19:17;;;;;;;7.27;6.43;;;18.70;99.90;;;;;;5023581;28;20184;-80
2023/09/28 04:21:42;;;;;;;10.50;5.70;;;18.70;99.90;;;;;;5022387;28;20173;-83
2023/09/28 04:24:08;;;;;;;7.10;6.40;;;18.70;99.90;;;;;;5019982;28;20227;-80
2023/09/28 04:26:34;;;;;;;7.07;6.30;;;18.70;99.90;;;;;;5023924;28;20246;-79
2023/09/28 04:29:00;;;;;;;8.13;6.70;;;18.70;99.90;;;;;;5023758;28;20188;-83
2023/09/28 04:31:26;;;;;;;9.13;7.20;;;18.70;99.90;;;;;;5002623;28;20446;-83
2023/09/28 04:33:52;;;;;;;7.13;5.87;;;18.70;99.90;;;;;;5005955;28;20467;-83
2023/09/28 04:36:18;;;;;;;8.13;6.00;;;18.60;99.90;;;;;;5002559;28;20211;-84
2023/09/28 04:38:43;;;;;;;8.70;6.80;;;18.60;99.90;;;;;;5021636;28;20943;-84
2023/09/28 04:41:09;;;;;;;10.00;6.90;;;18.70;99.90;;;;;;5031346;28;20195;-77
2023/09/28 04:43:35;;;;;;;6.30;5.70;;;18.60;99.90;;;;;;5019920;28;20716;-76
2023/09/28 04:46:05;;;;;;;7.20;6.20;;;18.60;99.90;;;;;;5020746;28;20677;-76
2023/09/28 04:48:31;;;;;;;6.23;5.63;;;18.60;99.90;;;;;;5022608;28;20174;-76
2023/09/28 04:50:57;;;;;;;8.17;6.80;;;18.60;99.90;;;;;;5019233;28;20418;-76
2023/09/28 04:53:23;;;;;;;7.43;6.70;;;18.60;99.90;;;;;;5020631;28;20436;-76
2023/09/28 04:55:48;;;;;;;7.60;6.90;;;18.60;99.90;;;;;;5000813;28;21078;-76
2023/09/28 04:58:14;;;;;;;7.33;6.07;;;18.60;99.90;;;;;;5015588;28;20181;-77
2023/09/28 05:00:39;;;;;;;7.10;6.30;;;18.60;99.90;;;;;;5018463;28;20207;-77
2023/09/28 05:03:05;;;;;;;6.50;5.67;;;18.60;99.90;;;;;;5006073;28;20181;-78
2023/09/28 05:05:33;;;;;;;7.27;6.07;;;18.50;99.90;;;;;;5018717;28;20217;-78
2023/09/28 05:07:59;;;;;;;8.80;5.70;;;18.50;99.90;;;;;;5014269;28;20220;-78
2023/09/28 05:10:25;;;;;;;7.00;6.30;;;18.50;99.90;;;;;;5017714;28;20499;-78
2023/09/28 05:12:50;;;;;;;7.60;6.80;;;18.50;99.90;;;;;;5016354;28;20176;-77
2023/09/28 05:15:16;;;;;;;9.23;5.93;;;18.50;99.90;;;;;;5010772;28;20275;-76
2023/09/28 05:17:42;;;;;;;7.03;6.03;;;18.40;99.90;;;;;;5015837;28;20176;-76
2023/09/28 05:20:09;;;;;;;11.57;6.67;;;18.40;99.90;;;;;;5016177;28;20446;-76
2023/09/28 05:22:35;;;;;;;7.63;6.60;;;18.40;99.90;;;;;;5006675;28;20181;-76
2023/09/28 05:25:02;;;;;;;7.80;5.90;;;18.30;99.90;;;;;;5010473;28;20531;-77
2023/09/28 05:27:28;;;;;;;8.80;6.30;;;18.40;99.90;;;;;;5014545;28;20489;-77
2023/09/28 05:29:54;;;;;;;7.30;5.90;;;18.30;99.90;;;;;;5015438;28;20431;-78
2023/09/28 05:32:19;;;;;;;7.17;6.43;;;18.30;99.90;;;;;;5012489;28;20192;-77
2023/09/28 05:34:46;;;;;;;8.00;5.97;;;18.40;99.90;;;;;;4999252;28;20199;-76
2023/09/28 05:37:12;;;;;;;7.67;6.47;;;18.30;99.90;;;;;;5021877;28;20180;-76
2023/09/28 05:39:38;;;;;;;10.53;6.33;;;18.30;99.90;;;;;;4996913;28;21278;-75
2023/09/28 05:42:04;;;;;;;6.73;6.10;;;18.20;99.90;;;;;;5024029;28;20192;-76
2023/09/28 05:44:31;;;;;;;9.30;6.70;;;18.10;99.90;;;;;;5013384;28;20307;-76
2023/09/28 05:46:57;;;;;;;7.30;6.60;;;18.00;99.90;;;;;;5017700;28;20882;-76
2023/09/28 05:49:22;;;;;;;7.10;6.30;;;18.10;99.90;;;;;;5017814;28;20424;-76
2023/09/28 05:51:48;;;;;;;7.27;6.53;;;18.10;99.90;;;;;;4999890;28;20185;-77
2023/09/28 05:54:13;;;;;;;7.90;6.40;;;18.10;99.90;;;;;;5020518;28;20207;-78
2023/09/28 05:56:39;;;;;;;6.50;5.90;;;18.10;99.90;;;;;;5025827;28;20182;-79
2023/09/28 05:59:04;;;;;;;7.80;6.93;;;18.10;99.90;;;;;;5026022;28;20238;-79
2023/09/28 06:01:30;;;;;;;7.60;6.50;;;18.20;99.90;;;;;;5025669;28;20315;-79
2023/09/28 06:03:56;;;;;;;8.23;6.63;;;18.20;99.90;;;;;;5000268;28;20196;-77
2023/09/28 06:06:22;;;;;;;8.63;6.70;;;18.20;99.90;;;;;;5034711;28;20207;-76
2023/09/28 06:08:50;;;;;;;6.93;6.23;;;18.20;99.90;;;;;;5008207;28;20199;-78
2023/09/28 06:11:17;;;;;;;7.57;6.70;;;18.20;99.90;;;;;;5020034;28;20525;-78
2023/09/28 06:13:44;;;;;;;8.67;6.53;;;18.20;99.90;;;;;;5020192;28;20431;-78
2023/09/28 06:16:13;;;;;;;6.57;5.87;;;18.30;99.90;;;;;;5018865;28;20908;-77
2023/09/28 06:18:41;;;;;;;6.20;5.50;;;18.20;99.90;;;;;;5017447;28;20432;-78
2023/09/28 06:21:06;;;;;;;8.83;6.27;;;18.30;99.90;;;;;;5023044;28;21081;-78
2023/09/28 06:23:33;;;;;;;10.23;6.67;;;18.30;99.90;;;;;;5027934;28;20448;-78
2023/09/28 06:25:59;;;;;;;12.50;6.70;;;18.30;99.90;;;;;;5026295;28;20192;-78
2023/09/28 06:28:25;;;;;;;7.23;6.53;;;18.30;99.90;;;;;;5022428;28;20459;-77
2023/09/28 06:30:53;;;;;;;7.20;5.50;;;18.30;99.90;;;;;;5024097;28;20215;-77
2023/09/28 06:33:19;;;;;;;7.20;6.47;;;18.30;99.90;;;;;;5022729;28;20207;-78
2023/09/28 06:35:44;;;;;;;10.20;7.30;;;18.30;99.90;;;;;;5017149;28;20416;-77
2023/09/28 06:38:11;;;;;;;8.27;7.27;;;18.30;99.90;;;;;;5017040;28;20668;-78
2023/09/28 06:40:38;;;;;;;10.73;6.40;;;18.40;99.90;;;;;;5017927;28;20184;-78
2023/09/28 06:43:04;;;;;;;10.93;7.10;;;18.40;99.90;;;;;;5020667;28;20435;-77
2023/09/28 06:45:30;;;;;;;9.77;8.30;;;18.40;99.90;;;;;;5023629;28;20428;-76
2023/09/28 06:47:56;;;;;;;7.83;7.03;;;18.50;99.90;;;;;;5021843;28;20470;-75
2023/09/28 06:50:22;;;;;;;8.50;6.10;;;18.50;99.90;;;;;;5008233;28;20263;-76
2023/09/28 06:52:48;;;;;;;7.40;6.10;;;18.60;99.90;;;;;;5028006;28;21244;-78
2023/09/28 06:55:13;;;;;;;8.70;6.10;;;18.50;99.90;;;;;;5026048;28;20458;-77
2023/09/28 06:57:39;;;;;;;7.70;6.10;;;18.40;99.90;;;;;;5027393;28;20196;-77
2023/09/28 07:00:09;;;;;;;14.10;8.70;;;18.50;99.90;;;;;;5025855;28;20188;-76
2023/09/28 07:02:37;;;;;;;7.80;6.70;;;18.50;99.90;;;;;;5021356;28;20177;-75
2023/09/28 07:05:03;;;;;;;9.70;7.13;;;18.50;99.90;;;;;;5004916;28;20478;-77
2023/09/28 07:07:30;;;;;;;9.47;6.53;;;18.70;99.90;;;;;;5014942;28;20537;-78
2023/09/28 07:09:56;;;;;;;7.97;6.50;;;18.90;99.90;;;;;;5019034;28;20176;-76
2023/09/28 07:12:22;;;;;;;10.63;7.20;;;18.80;99.90;;;;;;5022160;28;20992;-78
2023/09/28 07:14:48;;;;;;;8.70;7.10;;;18.70;99.90;;;;;;5018329;28;20491;-78
2023/09/28 07:17:14;;;;;;;8.00;6.13;;;18.80;99.90;;;;;;5012231;28;20971;-78
2023/09/28 07:19:39;;;;;;;8.10;6.53;;;18.80;99.90;;;;;;5021634;28;20585;-79
2023/09/28 07:22:05;;;;;;;8.53;6.80;;;18.60;99.90;;;;;;5034051;28;20181;-78
2023/09/28 07:24:34;;;;;;;9.27;7.33;;;18.60;99.90;;;;;;5017284;28;20204;-78
2023/09/28 07:27:00;;;;;;;8.37;7.10;;;18.60;99.90;;;;;;5012801;28;20465;-79
2023/09/28 07:29:26;;;;;;;9.70;7.07;;;18.70;99.90;;;;;;5021209;28;21009;-80
2023/09/28 07:31:52;;;;;;;7.00;6.03;;;18.70;99.90;;;;;;5032783;28;20426;-78
2023/09/28 07:34:17;;;;;;;11.47;8.40;;;18.70;99.90;;;;;;5050350;28;20216;-77
2023/09/28 07:36:45;;;;;;;7.93;6.67;;;18.70;99.90;;;;;;5036770;28;20446;-78
2023/09/28 07:39:11;;;;;;;9.40;6.23;;;18.70;99.90;;;;;;5039561;28;20197;-78
2023/09/28 07:41:37;;;;;;;8.17;6.53;;;18.90;99.90;;;;;;5039191;28;20422;-79
2023/09/28 07:44:03;;;;;;;7.27;6.47;;;19.00;99.90;;;;;;5032643;28;20477;-76
2023/09/28 07:46:28;;;;;;;11.33;6.73;;;18.90;99.90;;;;;;5020277;28;20262;-76
2023/09/28 07:48:56;;;;;;;7.10;6.20;;;18.90;99.90;;;;;;5022072;28;20272;-76
2023/09/28 07:51:21;;;;;;;7.10;6.40;;;19.00;99.90;;;;;;5021577;28;20212;-77
2023/09/28 07:53:47;;;;;;;8.87;6.57;;;19.10;99.90;;;;;;5015354;28;20985;-76
2023/09/28 07:56:13;;;;;;;8.80;5.80;;;19.30;99.90;;;;;;5017867;28;20267;-76
2023/09/28 07:58:39;;;;;;;7.63;5.80;;;19.30;99.90;;;;;;5016358;28;20190;-76
2023/09/28 08:01:04;;;;;;;8.07;6.70;;;19.30;99.90;;;;;;5018313;28;20227;-77
2023/09/28 08:03:30;;;;;;;9.30;6.27;;;19.30;99.90;;;;;;5017815;28;20439;-76
2023/09/28 08:05:56;;;;;;;6.83;6.20;;;19.30;99.90;;;;;;5018915;28;20180;-76
2023/09/28 08:08:22;;;;;;;8.83;6.03;;;19.40;99.90;;;;;;5018991;28;20183;-77
2023/09/28 08:10:48;;;;;;;7.63;6.13;;;19.40;99.90;;;;;;5022948;28;20672;-76
2023/09/28 08:13:15;;;;;;;8.20;6.67;;;19.40;99.90;;;;;;5018551;28;20424;-77
2023/09/28 08:15:41;;;;;;;8.43;6.33;;;19.40;99.90;;;;;;5017462;28;20177;-76
2023/09/28 08:18:08;;;;;;;11.43;7.33;;;19.50;99.90;;;;;;5015042;28;20471;-77
2023/09/28 08:20:33;;;;;;;7.70;6.73;;;19.50;99.90;;;;;;5018926;28;20672;-78
2023/09/28 08:22:59;;;;;;;7.53;5.80;;;19.50;99.90;;;;;;5019194;28;20427;-77
2023/09/28 08:25:25;;;;;;;6.00;5.40;;;19.60;99.90;;;;;;5020872;28;20557;-76
2023/09/28 08:27:51;;;;;;;7.30;5.73;;;19.70;99.90;;;;;;5006040;28;20473;-76
2023/09/28 08:30:16;;;;;;;7.93;5.70;;;19.70;99.90;;;;;;5021568;28;20180;-77
2023/09/28 08:32:42;;;;;;;9.00;6.40;;;19.70;99.90;;;;;;5017670;28;21075;-76
2023/09/28 08:35:11;;;;;;;8.10;5.33;;;19.70;99.90;;;;;;5021213;28;20679;-78
2023/09/28 08:37:36;;;;;;;7.60;5.80;;;19.70;99.90;;;;;;5016304;28;20185;-75
2023/09/28 08:40:04;;;;;;;6.43;5.80;;;19.80;99.90;;;;;;5014591;28;20430;-76
2023/09/28 08:42:31;;;;;;;11.30;6.10;;;19.90;99.90;;;;;;5019243;28;20554;-78
2023/09/28 08:45:02;;;;;;;6.37;5.50;;;20.00;99.90;;;;;;5019816;28;20447;-77
2023/09/28 08:47:35;;;;;;;5.90;5.27;;;20.00;99.90;;;;;;5016957;28;20471;-77
2023/09/28 08:50:02;;;;;;;8.07;5.90;;;20.20;99.90;;;;;;5019891;28;20429;-77
2023/09/28 08:52:29;;;;;;;6.27;5.60;;;20.20;99.90;;;;;;5023489;28;20430;-77
2023/09/28 08:54:57;;;;;;;10.50;6.40;;;20.30;99.90;;;;;;5017081;28;20446;-77
2023/09/28 08:57:23;;;;;;;6.87;6.17;;;20.30;99.90;;;;;;5020961;28;20439;-76
2023/09/28 08:59:52;;;;;;;11.03;5.70;;;20.40;99.90;;;;;;5014678;28;20453;-77
2023/09/28 09:02:18;;;;;;;8.20;5.63;;;20.50;99.90;;;;;;5014514;28;20810;-77
2023/09/28 09:04:45;;;;;;;7.50;6.03;;;20.50;99.90;;;;;;5015088;28;20455;-77
2023/09/28 09:07:11;;;;;;;7.47;6.30;;;20.60;99.90;;;;;;5023105;28;20212;-78
2023/09/28 09:09:40;;;;;;;8.63;5.77;;;20.70;99.90;;;;;;5019033;28;20523;-78
2023/09/28 09:12:12;;;;;;;7.20;5.70;;;20.70;99.90;;;;;;5014963;28;20422;-77
2023/09/28 09:14:38;;;;;;;6.73;5.90;;;20.80;99.90;;;;;;5019271;28;20553;-78
2023/09/28 09:17:04;;;;;;;6.70;5.53;;;20.90;99.90;;;;;;5000123;28;20522;-77
2023/09/28 09:19:30;;;;;;;9.57;7.07;;;21.00;99.90;;;;;;5015584;28;20428;-77
2023/09/28 09:21:57;;;;;;;7.17;5.60;;;21.10;99.90;;;;;;5017805;28;20708;-77
2023/09/28 09:24:25;;;;;;;8.90;5.50;;;21.30;99.90;;;;;;5008615;28;21020;-77
2023/09/28 09:26:56;;;;;;;8.40;5.83;;;21.30;99.90;;;;;;5011395;28;20562;-77
2023/09/28 09:29:22;;;;;;;6.53;5.60;;;21.30;99.90;;;;;;5020240;28;20969;-78
2023/09/28 09:31:50;;;;;;;6.67;5.77;;;21.40;99.90;;;;;;5018475;28;20446;-78
2023/09/28 09:34:17;;;;;;;6.80;5.53;;;21.50;99.90;;;;;;5005197;28;20481;-77
2023/09/28 09:36:51;;;;;;;11.63;5.47;;;21.60;99.90;;;;;;4995759;28;20502;-77
2023/09/28 09:39:23;;;;;;;6.67;5.03;;;21.70;99.90;;;;;;5018670;28;20942;-77
2023/09/28 09:41:49;;;;;;;7.00;5.40;;;21.70;99.90;;;;;;5020511;28;20678;-77
2023/09/28 09:44:19;;;;;;;7.97;5.50;;;21.80;99.90;;;;;;5014694;28;20923;-75
2023/09/28 09:46:49;;;;;;;5.20;4.70;;;21.80;99.90;;;;;;5014533;28;20232;-77
2023/09/28 09:49:18;;;;;;;5.90;4.57;;;21.80;99.90;;;;;;5016192;28;20423;-77
2023/09/28 09:51:45;;;;;;;5.70;5.10;;;22.00;99.90;;;;;;5018118;28;21009;-78
2023/09/28 09:54:16;;;;;;;10.63;5.40;;;22.10;99.90;;;;;;5013427;28;20432;-76
2023/09/28 09:56:47;;;;;;;7.90;6.20;;;22.10;99.90;;;;;;5022085;28;20821;-77
2023/09/28 09:59:18;;;;;;;7.50;5.43;;;22.20;99.90;;;;;;4990951;28;20860;-77
2023/09/28 10:01:47;;;;;;;6.77;6.00;;;22.20;99.90;;;;;;5012934;28;20427;-76
2023/09/28 10:04:16;;;;;;;8.37;5.70;;;22.40;99.90;;;;;;5018863;28;20439;-76
2023/09/28 10:06:48;;;;;;;10.27;5.63;;;22.40;99.90;;;;;;5012268;28;20469;-77
2023/09/28 10:09:16;;;;;;;6.50;5.90;;;22.50;99.90;;;;;;4999850;28;21115;-76
2023/09/28 10:11:43;;;;;;;6.63;5.00;;;22.60;99.90;;;;;;5022923;28;20464;-75
2023/09/28 10:14:10;;;;;;;6.40;5.30;;;22.60;99.90;;;;;;5013578;28;20470;-77
2023/09/28 10:16:40;;;;;;;8.40;5.43;;;22.60;99.90;;;;;;5014554;28;20431;-77
2023/09/28 10:19:08;;;;;;;6.30;5.20;;;22.80;99.90;;;;;;5015357;28;20447;-77
2023/09/28 10:21:38;;;;;;;6.30;4.77;;;22.90;99.90;;;;;;5012839;28;20427;-77
2023/09/28 10:24:11;;;;;;;9.43;5.23;;;22.90;99.90;;;;;;5012938;28;20477;-77
2023/09/28 10:26:38;;;;;;;6.03;5.07;;;22.90;99.90;;;;;;5009395;28;20506;-76
2023/09/28 10:29:06;;;;;;;6.50;5.80;;;23.00;99.90;;;;;;4995490;28;20416;-77
2023/09/28 10:31:34;;;;;;;8.00;5.60;;;23.10;99.90;;;;;;5011713;28;20428;-77
2023/09/28 10:34:00;;;;;;;5.93;5.30;;;23.20;99.90;;;;;;5010216;28;20471;-77
2023/09/28 10:36:26;;;;;;;11.20;5.80;;;23.30;99.90;;;;;;5013980;28;20926;-76
2023/09/28 10:39:16;;;;;;;6.37;5.03;;;23.40;99.90;;;;;;4992021;28;20455;-77
2023/09/28 10:41:49;;;;;;;5.20;4.70;;;23.50;99.90;;;;;;5008753;28;20419;-76
2023/09/28 10:44:20;;;;;;;8.07;5.27;;;23.50;99.90;;;;;;5007646;28;20431;-76
2023/09/28 10:46:48;;;;;;;7.70;5.50;;;23.60;99.90;;;;;;5012141;28;20463;-76
2023/09/28 10:49:21;;;;;;;7.27;5.60;;;23.70;99.90;;;;;;5004220;28;20433;-77
2023/09/28 10:51:47;;;;;;;6.70;5.10;;;23.80;99.90;;;;;;5019149;28;21199;-75
2023/09/28 10:54:13;;;;;;;5.87;4.60;;;23.80;99.90;;;;;;5016367;28;20434;-74
2023/09/28 10:56:39;;;;;;;5.10;4.43;;;23.80;99.90;;;;;;5019308;28;20246;-75
2023/09/28 10:59:07;;;;;;;6.50;4.90;;;23.80;99.90;;;;;;5013401;28;20531;-77
2023/09/28 11:01:38;;;;;;;8.37;5.20;;;23.90;99.90;;;;;;4988928;28;20447;-78
2023/09/28 11:04:04;;;;;;;5.43;4.20;;;23.90;99.90;;;;;;5007656;28;20463;-78
2023/09/28 11:06:30;;;;;;;5.27;4.70;;;24.00;99.90;;;;;;5002125;28;20529;-76
2023/09/28 11:08:57;;;;;;;5.53;5.03;;;24.10;99.90;;;;;;5003705;28;20322;-76
2023/09/28 11:11:23;;;;;;;5.30;4.60;;;24.10;99.90;;;;;;4998219;28;20431;-76
2023/09/28 11:13:49;;;;;;;6.07;4.70;;;24.10;99.90;;;;;;5013992;28;20443;-76
2023/09/28 11:16:17;;;;;;;6.30;5.07;;;24.10;99.90;;;;;;5010840;28;20411;-76
2023/09/28 11:18:42;;;;;;;7.80;4.70;;;24.20;99.90;;;;;;5015092;28;20422;-77
2023/09/28 11:21:09;;;;;;;6.67;5.50;;;24.20;99.90;;;;;;5017732;28;20935;-76
2023/09/28 11:23:34;;;;;;;6.23;4.60;;;24.30;99.90;;;;;;4996906;28;20449;-79
2023/09/28 11:26:00;;;;;;;6.40;5.30;;;24.40;99.90;;;;;;4993972;28;20998;-77
2023/09/28 11:28:27;;;;;;;7.40;4.83;;;24.50;99.90;;;;;;5010912;28;20193;-77
2023/09/28 11:31:09;;;;;;;7.00;5.07;;;24.50;99.90;;;;;;5014699;28;22090;-77
2023/09/28 11:33:38;;;;;;;6.27;5.10;;;24.60;99.90;;;;;;5006038;28;20456;-77
2023/09/28 11:36:05;;;;;;;4.83;4.33;;;24.70;99.90;;;;;;5014787;28;20458;-77
2023/09/28 11:38:32;;;;;;;7.20;5.53;;;24.90;99.90;;;;;;5025413;28;20446;-76
2023/09/28 11:40:58;;;;;;;6.63;4.93;;;25.00;99.90;;;;;;5016564;28;20431;-76
2023/09/28 11:43:24;;;;;;;8.60;5.40;;;25.20;99.90;;;;;;5013777;28;20455;-75
2023/09/28 11:45:50;;;;;;;7.50;4.40;;;25.20;99.90;;;;;;5013474;28;20419;-75
2023/09/28 11:48:20;;;;;;;7.90;6.17;;;25.30;99.90;;;;;;5029977;28;20466;-76
2023/09/28 11:50:47;;;;;;;7.23;5.57;;;25.50;99.90;;;;;;5015669;28;20192;-76
2023/09/28 11:53:14;;;;;;;7.67;4.60;;;25.90;99.90;;;;;;5016578;28;20442;-76
2023/09/28 11:55:41;;;;;;;6.53;4.40;;;27.00;99.90;;;;;;5018413;28;20431;-77
2023/09/28 11:58:09;;;;;;;6.27;5.67;;;28.10;99.90;;;;;;5017318;28;20446;-76
2023/09/28 12:00:36;;;;;;;6.53;4.83;;;28.90;98.70;;;;;;5011129;28;20435;-78
2023/09/28 12:03:05;;;;;;;5.73;5.07;;;29.50;97.00;;;;;;5015629;28;20450;-77
2023/09/28 12:05:31;;;;;;;7.57;5.23;;;29.90;94.50;;;;;;5012590;28;20423;-75
2023/09/28 12:07:58;;;;;;;5.77;5.07;;;30.30;93.40;;;;;;4999264;28;20558;-78
2023/09/28 12:10:24;;;;;;;5.33;4.80;;;30.60;90.10;;;;;;4997552;28;20444;-78
2023/09/28 12:12:49;;;;;;;5.57;4.40;;;31.00;89.70;;;;;;5018076;28;20404;-75
2023/09/28 12:15:16;;;;;;;5.10;4.60;;;30.60;84.60;;;;;;5017867;28;20443;-77
2023/09/28 12:17:42;;;;;;;6.07;5.40;;;30.80;84.50;;;;;;5003609;28;20192;-77
2023/09/28 12:20:09;;;;;;;7.67;5.40;;;30.90;83.50;;;;;;5019322;28;20414;-76
2023/09/28 12:22:36;;;;;;;7.23;6.53;;;31.10;81.90;;;;;;5019930;28;20212;-77
2023/09/28 12:25:04;;;;;;;6.50;4.90;;;31.50;79.60;;;;;;5016323;28;20483;-76
2023/09/28 12:27:31;;;;;;;5.63;4.83;;;31.60;78.50;;;;;;5002482;28;21086;-76
2023/09/28 12:29:56;;;;;;;5.73;5.03;;;32.00;77.70;;;;;;5035221;28;20435;-76
2023/09/28 12:32:22;;;;;;;6.10;4.93;;;31.60;73.90;;;;;;5017721;28;20890;-75
2023/09/28 12:34:48;;;;;;;5.53;4.50;;;31.50;72.70;;;;;;5014416;28;20275;-76
2023/09/28 12:37:14;;;;;;;5.27;4.70;;;31.50;73.10;;;;;;5011643;28;20638;-76
2023/09/28 12:39:39;;;;;;;5.80;4.83;;;31.60;72.90;;;;;;5017590;28;20664;-77
2023/09/28 12:42:05;;;;;;;6.27;5.20;;;31.50;72.10;;;;;;5032866;28;20173;-76
2023/09/28 12:44:30;;;;;;;7.17;5.30;;;31.70;72.60;;;;;;5006342;28;20687;-77